Time;durP1;ratioP1;P1;durP2;ratioP2;P2;SDS_P1;SDS_P2;PMS_P1;PMS_P2;Temp;Humidity;BMP_temperature;BMP_pressure;BME280_temperature;BME280_humidity;BME280_pressure;Samples;Min_cycle;Max_cycle;Signal;HPM_P1;HPM_P2
2022/07/24 00:01:54;;;;;;;8.55;7.63;;;19.90;99.90;;;;;;6164941;23;20009;-78
2022/07/24 00:04:22;;;;;;;7.30;6.57;;;19.90;99.90;;;;;;6155915;23;20653;-79
2022/07/24 00:06:50;;;;;;;7.40;6.70;;;19.90;99.90;;;;;;6161419;23;20013;-79
2022/07/24 00:09:18;;;;;;;11.75;8.32;;;19.80;99.90;;;;;;6164836;23;20014;-79
2022/07/24 00:11:46;;;;;;;9.80;7.75;;;19.80;99.90;;;;;;6157476;23;20540;-78
2022/07/24 00:14:13;;;;;;;8.63;7.80;;;19.50;99.90;;;;;;6164012;23;20021;-79
2022/07/24 00:16:41;;;;;;;14.73;8.85;;;19.40;99.90;;;;;;6164911;23;20021;-79
2022/07/24 00:19:09;;;;;;;11.45;9.38;;;19.30;99.90;;;;;;6154179;23;20449;-78
2022/07/24 00:21:37;;;;;;;13.38;9.02;;;19.20;99.90;;;;;;6164430;23;20020;-79
2022/07/24 00:24:05;;;;;;;8.85;7.50;;;19.10;99.90;;;;;;6155787;23;20029;-75
2022/07/24 00:26:33;;;;;;;13.57;7.20;;;19.10;99.90;;;;;;6160688;23;20025;-74
2022/07/24 00:29:01;;;;;;;14.38;8.20;;;19.10;99.90;;;;;;6162472;23;20020;-75
2022/07/24 00:31:29;;;;;;;6.70;6.00;;;19.00;99.90;;;;;;6155931;23;20025;-75
2022/07/24 00:34:00;;;;;;;8.52;7.65;;;19.00;99.90;;;;;;6162371;23;20017;-75
2022/07/24 00:36:27;;;;;;;9.43;7.40;;;19.10;99.90;;;;;;6151576;23;20029;-75
2022/07/24 00:38:55;;;;;;;13.00;7.90;;;19.10;99.90;;;;;;6159029;23;20025;-75
2022/07/24 00:41:23;;;;;;;12.52;8.32;;;19.20;99.90;;;;;;6162760;23;20016;-75
2022/07/24 00:44:09;;;;;;;9.07;7.88;;;19.30;99.90;;;;;;6154624;23;20032;-75
2022/07/24 00:46:38;;;;;;;9.55;8.30;;;19.20;99.90;;;;;;6159769;23;20026;-75
2022/07/24 00:49:10;;;;;;;7.80;7.10;;;19.20;99.90;;;;;;6161036;23;20045;-75
2022/07/24 00:51:47;;;;;;;7.97;7.18;;;19.20;99.90;;;;;;6125287;23;20036;-75
2022/07/24 00:54:16;;;;;;;10.77;9.63;;;19.10;99.90;;;;;;6125658;23;20021;-75
2022/07/24 00:56:46;;;;;;;13.77;9.05;;;19.00;99.90;;;;;;6162204;23;20018;-75
2022/07/24 00:59:14;;;;;;;11.17;7.90;;;18.90;99.90;;;;;;6156693;23;20021;-75
2022/07/24 01:01:42;;;;;;;23.77;9.98;;;18.90;99.90;;;;;;6162442;23;20021;-75
2022/07/24 01:04:10;;;;;;;11.57;8.88;;;18.80;99.90;;;;;;6153587;23;20029;-74
2022/07/24 01:06:44;;;;;;;9.73;8.68;;;18.80;99.90;;;;;;6159165;23;20025;-75
2022/07/24 01:09:12;;;;;;;10.45;9.43;;;18.70;99.90;;;;;;6161887;23;20018;-75
2022/07/24 01:11:40;;;;;;;10.05;8.30;;;18.70;99.90;;;;;;6155455;23;20017;-75
2022/07/24 01:14:09;;;;;;;9.57;8.57;;;18.70;99.90;;;;;;6162512;23;20018;-75
2022/07/24 01:16:37;;;;;;;15.38;9.75;;;18.70;99.90;;;;;;6151256;23;20026;-75
2022/07/24 01:19:05;;;;;;;9.45;8.13;;;18.70;99.90;;;;;;6155075;23;20021;-75
2022/07/24 01:21:34;;;;;;;14.38;8.77;;;18.50;99.90;;;;;;6161262;23;20017;-75
2022/07/24 01:24:02;;;;;;;9.32;8.13;;;18.50;99.90;;;;;;6154191;23;20349;-75
2022/07/24 01:26:30;;;;;;;9.52;8.15;;;18.40;99.90;;;;;;6158683;23;20025;-75
2022/07/24 01:28:57;;;;;;;15.07;9.60;;;18.40;99.90;;;;;;6154731;23;20321;-75
2022/07/24 01:31:25;;;;;;;14.50;8.02;;;18.40;99.90;;;;;;6156281;23;20029;-75
2022/07/24 01:33:53;;;;;;;9.93;7.68;;;18.40;99.90;;;;;;6161159;23;20436;-75
2022/07/24 01:36:21;;;;;;;9.07;7.85;;;18.40;99.90;;;;;;6151947;23;20401;-75
2022/07/24 01:38:48;;;;;;;10.13;8.65;;;18.50;99.90;;;;;;6158867;23;20018;-74
2022/07/24 01:41:17;;;;;;;13.30;7.97;;;18.50;99.90;;;;;;6162286;23;20016;-75
2022/07/24 01:43:45;;;;;;;12.00;10.48;;;18.50;99.90;;;;;;6155224;23;20029;-75
2022/07/24 01:46:14;;;;;;;11.65;8.75;;;18.40;99.90;;;;;;6151730;23;20469;-75
2022/07/24 01:48:43;;;;;;;15.23;9.43;;;18.30;99.90;;;;;;6159726;23;20017;-75
2022/07/24 01:51:11;;;;;;;13.95;8.82;;;18.30;99.90;;;;;;6157354;23;20025;-75
2022/07/24 01:53:38;;;;;;;15.48;9.95;;;18.30;99.90;;;;;;6161478;23;20314;-75
2022/07/24 01:56:06;;;;;;;20.20;11.57;;;18.30;99.90;;;;;;6153789;23;20633;-75
2022/07/24 01:58:34;;;;;;;14.68;10.13;;;18.40;99.90;;;;;;6159485;23;20028;-75
2022/07/24 02:01:02;;;;;;;9.57;8.48;;;18.30;99.90;;;;;;6161123;23;20022;-75
2022/07/24 02:03:30;;;;;;;12.00;7.85;;;18.20;99.90;;;;;;6155922;23;20026;-75
2022/07/24 02:05:57;;;;;;;14.88;9.27;;;18.10;99.90;;;;;;6161318;23;20013;-75
2022/07/24 02:08:26;;;;;;;10.38;7.25;;;18.10;99.90;;;;;;6151505;23;20028;-75
2022/07/24 02:10:54;;;;;;;9.85;8.85;;;18.10;99.90;;;;;;6158208;23;20021;-74
2022/07/24 02:13:22;;;;;;;10.82;8.05;;;18.30;99.90;;;;;;6161911;23;20017;-75
2022/07/24 02:15:53;;;;;;;7.85;7.10;;;18.40;99.90;;;;;;6154195;23;20021;-75
2022/07/24 02:18:21;;;;;;;10.75;9.07;;;18.50;99.90;;;;;;6157626;23;20017;-75
2022/07/24 02:20:48;;;;;;;9.65;7.90;;;18.50;99.90;;;;;;6161888;23;20014;-75
2022/07/24 02:23:19;;;;;;;12.80;8.23;;;18.60;99.90;;;;;;6156068;23;20028;-75
2022/07/24 02:25:48;;;;;;;;;;;18.60;99.90;;;;;;6162421;23;20038;-75
2022/07/24 02:28:16;;;;;;;9.55;7.72;;;18.60;99.90;;;;;;6152117;23;20351;-75
2022/07/24 02:30:44;;;;;;;12.80;9.07;;;18.70;99.90;;;;;;6159210;23;20033;-75
2022/07/24 02:33:12;;;;;;;10.57;8.63;;;18.70;99.90;;;;;;6161649;23;20013;-75
2022/07/24 02:35:40;;;;;;;13.10;7.72;;;18.70;99.90;;;;;;6153471;23;20022;-75
2022/07/24 02:38:08;;;;;;;10.65;9.05;;;18.70;99.90;;;;;;6160653;23;20009;-75
2022/07/24 02:40:36;;;;;;;9.98;7.63;;;18.70;99.90;;;;;;6150702;23;20053;-75
2022/07/24 02:43:04;;;;;;;10.85;8.35;;;18.80;99.90;;;;;;6157560;23;20022;-75
2022/07/24 02:45:32;;;;;;;10.27;8.68;;;18.70;99.90;;;;;;6161841;23;20017;-75
2022/07/24 02:47:59;;;;;;;9.20;7.80;;;18.70;99.90;;;;;;6153056;23;20037;-75
2022/07/24 02:50:31;;;;;;;13.38;10.25;;;18.50;99.90;;;;;;6159932;23;20018;-75
2022/07/24 02:52:59;;;;;;;10.65;8.32;;;18.40;99.90;;;;;;6161016;23;20013;-75
2022/07/24 02:55:28;;;;;;;10.50;8.00;;;18.40;99.90;;;;;;6155791;23;20033;-75
2022/07/24 02:57:56;;;;;;;13.05;8.35;;;18.40;99.90;;;;;;6159733;23;20024;-75
2022/07/24 03:00:24;;;;;;;7.53;6.78;;;18.40;99.90;;;;;;6152013;23;20029;-75
2022/07/24 03:02:52;;;;;;;10.77;8.55;;;18.30;99.90;;;;;;6157776;23;20333;-75
2022/07/24 03:05:20;;;;;;;15.73;8.07;;;18.30;99.90;;;;;;6161913;23;20020;-75
2022/07/24 03:07:48;;;;;;;8.70;7.60;;;18.30;99.90;;;;;;6153344;23;20029;-75
2022/07/24 03:10:17;;;;;;;10.52;7.05;;;18.20;99.90;;;;;;6160427;23;20039;-75
2022/07/24 03:12:44;;;;;;;10.57;7.32;;;18.20;99.90;;;;;;6161482;23;20021;-75
2022/07/24 03:15:14;;;;;;;10.05;8.90;;;18.20;99.90;;;;;;6156828;23;20032;-75
2022/07/24 03:17:56;;;;;;;9.75;8.52;;;18.10;99.90;;;;;;6161330;23;20018;-75
2022/07/24 03:20:26;;;;;;;9.55;8.68;;;18.10;99.90;;;;;;6121797;23;20056;-75
2022/07/24 03:22:55;;;;;;;9.27;7.88;;;18.00;99.90;;;;;;6127670;23;20030;-75
2022/07/24 03:25:23;;;;;;;11.38;8.20;;;18.00;99.90;;;;;;6131868;23;20445;-75
2022/07/24 03:27:51;;;;;;;12.32;8.55;;;17.90;99.90;;;;;;6124507;23;20071;-75
2022/07/24 03:30:20;;;;;;;8.65;7.55;;;17.70;99.90;;;;;;6130583;23;20017;-74
2022/07/24 03:32:47;;;;;;;9.07;7.95;;;17.50;99.90;;;;;;6129757;23;20796;-75
2022/07/24 03:35:15;;;;;;;16.02;8.38;;;17.40;99.90;;;;;;6126977;23;20026;-75
2022/07/24 03:37:43;;;;;;;18.10;9.65;;;17.40;99.90;;;;;;6131319;23;20014;-75
2022/07/24 03:40:11;;;;;;;10.23;6.82;;;17.40;99.90;;;;;;6123363;23;20022;-75
2022/07/24 03:42:39;;;;;;;8.88;8.00;;;17.40;99.90;;;;;;6129592;23;20018;-75
2022/07/24 03:45:07;;;;;;;16.42;10.52;;;17.30;99.90;;;;;;6131936;23;20014;-75
2022/07/24 03:47:34;;;;;;;8.48;7.57;;;17.30;99.90;;;;;;6127146;23;20034;-75
2022/07/24 03:50:02;;;;;;;9.23;8.23;;;17.30;99.90;;;;;;6133312;23;20021;-75
2022/07/24 03:52:30;;;;;;;12.77;8.57;;;17.30;99.90;;;;;;6123136;23;20469;-75
2022/07/24 03:54:58;;;;;;;11.13;8.75;;;17.00;99.90;;;;;;6130056;23;20022;-75
2022/07/24 03:57:26;;;;;;;18.73;10.20;;;16.90;99.90;;;;;;6133497;23;20021;-75
2022/07/24 03:59:53;;;;;;;20.13;12.73;;;16.80;99.90;;;;;;6125463;23;20033;-75
2022/07/24 04:02:21;;;;;;;13.98;10.63;;;16.80;99.90;;;;;;6131952;23;20010;-75
2022/07/24 04:04:49;;;;;;;9.82;8.25;;;16.80;99.90;;;;;;6098009;23;20014;-74
2022/07/24 04:07:16;;;;;;;12.52;8.32;;;16.90;99.90;;;;;;6127985;23;20025;-75
2022/07/24 04:09:44;;;;;;;11.32;9.70;;;16.90;99.90;;;;;;6132161;23;20018;-75
2022/07/24 04:12:12;;;;;;;10.15;8.25;;;16.90;99.90;;;;;;6124784;23;20030;-75
2022/07/24 04:14:39;;;;;;;11.85;9.70;;;17.00;99.90;;;;;;6131015;23;20022;-75
2022/07/24 04:17:08;;;;;;;12.35;10.48;;;17.00;99.90;;;;;;6133296;23;20018;-75
2022/07/24 04:19:36;;;;;;;15.32;9.32;;;17.00;99.90;;;;;;6147943;23;20554;-75
2022/07/24 04:22:04;;;;;;;13.65;9.75;;;16.90;99.90;;;;;;6162552;23;20021;-75
2022/07/24 04:24:32;;;;;;;12.45;8.63;;;16.90;99.90;;;;;;6152642;23;20033;-75
2022/07/24 04:27:00;;;;;;;9.80;7.78;;;16.70;99.90;;;;;;6158809;23;20457;-75
2022/07/24 04:29:28;;;;;;;11.20;8.98;;;16.50;99.90;;;;;;6162634;23;20442;-76
2022/07/24 04:31:56;;;;;;;21.15;9.30;;;16.60;99.90;;;;;;6155415;23;20488;-76
2022/07/24 04:34:24;;;;;;;15.55;11.13;;;16.60;99.90;;;;;;6161140;23;20018;-75
2022/07/24 04:36:51;;;;;;;11.35;9.45;;;16.60;99.90;;;;;;6161948;23;20021;-75
2022/07/24 04:39:19;;;;;;;10.35;9.20;;;16.60;99.90;;;;;;6157059;23;20356;-75
2022/07/24 04:41:47;;;;;;;9.95;8.40;;;16.70;99.90;;;;;;6162894;23;20032;-75
2022/07/24 04:44:14;;;;;;;12.32;7.93;;;16.70;99.90;;;;;;6154150;23;20057;-75
2022/07/24 04:46:42;;;;;;;9.45;8.35;;;16.80;99.90;;;;;;6159833;23;20452;-75
2022/07/24 04:49:11;;;;;;;11.20;9.15;;;16.90;99.90;;;;;;6162765;23;20021;-75
2022/07/24 04:51:38;;;;;;;16.33;9.48;;;17.00;99.90;;;;;;6125633;23;20029;-75
2022/07/24 04:54:06;;;;;;;9.70;8.75;;;17.10;99.90;;;;;;6162580;23;20013;-75
2022/07/24 04:56:34;;;;;;;10.25;8.85;;;17.30;99.90;;;;;;6152244;23;20026;-75
2022/07/24 04:59:02;;;;;;;12.32;8.93;;;17.30;99.90;;;;;;6157930;23;20025;-75
2022/07/24 05:01:30;;;;;;;20.45;10.68;;;17.40;99.90;;;;;;6162263;23;20013;-75
2022/07/24 05:03:58;;;;;;;12.00;10.15;;;17.40;99.90;;;;;;6154520;23;20021;-75
2022/07/24 05:06:26;;;;;;;11.73;10.40;;;17.50;99.90;;;;;;6160075;23;20021;-75
2022/07/24 05:08:54;;;;;;;13.43;10.80;;;17.50;99.90;;;;;;6162322;23;20009;-75
2022/07/24 05:11:22;;;;;;;17.50;9.70;;;17.50;99.90;;;;;;6156795;23;20013;-75
2022/07/24 05:13:50;;;;;;;12.18;9.75;;;17.60;99.90;;;;;;6162593;23;20013;-75
2022/07/24 05:16:17;;;;;;;12.15;10.93;;;17.80;99.90;;;;;;6152888;23;20021;-75
2022/07/24 05:18:45;;;;;;;13.85;9.57;;;17.90;99.90;;;;;;6156850;23;20025;-75
2022/07/24 05:21:14;;;;;;;13.77;12.10;;;18.10;99.90;;;;;;6162279;23;20020;-75
2022/07/24 05:23:43;;;;;;;16.80;11.43;;;18.30;99.90;;;;;;6155296;23;20040;-75
2022/07/24 05:26:11;;;;;;;11.77;9.75;;;18.40;99.90;;;;;;6162030;23;20037;-75
2022/07/24 05:28:39;;;;;;;18.42;10.27;;;18.70;99.90;;;;;;6151020;23;20033;-75
2022/07/24 05:31:08;;;;;;;18.40;11.57;;;18.80;99.90;;;;;;6156627;23;20029;-75
2022/07/24 05:33:36;;;;;;;27.70;12.07;;;18.90;99.90;;;;;;6161978;23;20025;-75
2022/07/24 05:36:04;;;;;;;11.93;9.75;;;18.90;99.90;;;;;;6152520;23;20021;-75
2022/07/24 05:38:32;;;;;;;13.75;10.57;;;19.00;99.90;;;;;;6154126;23;20029;-75
2022/07/24 05:41:00;;;;;;;11.82;9.80;;;19.20;99.90;;;;;;6137067;23;20453;-75
2022/07/24 05:43:27;;;;;;;13.02;11.05;;;19.40;99.90;;;;;;6130826;23;20037;-75
2022/07/24 05:45:56;;;;;;;14.90;10.43;;;19.60;99.90;;;;;;6162376;23;20021;-75
2022/07/24 05:48:23;;;;;;;13.43;11.18;;;19.80;99.90;;;;;;6126135;23;20468;-75
2022/07/24 05:50:51;;;;;;;14.13;9.68;;;19.90;99.90;;;;;;6159072;23;20029;-76
2022/07/24 05:53:19;;;;;;;14.23;11.05;;;19.90;99.90;;;;;;6161227;23;20445;-77
2022/07/24 05:55:46;;;;;;;18.75;11.23;;;19.80;99.90;;;;;;6154958;23;20022;-76
2022/07/24 05:58:14;;;;;;;12.38;10.75;;;19.70;99.90;;;;;;6134429;23;20758;-76
2022/07/24 06:00:43;;;;;;;15.88;9.73;;;19.70;99.90;;;;;;6161873;23;20017;-76
2022/07/24 06:03:10;;;;;;;11.52;9.63;;;19.90;99.90;;;;;;6157160;23;20025;-75
2022/07/24 06:05:38;;;;;;;11.43;9.43;;;20.00;99.90;;;;;;6162219;23;20013;-76
2022/07/24 06:08:06;;;;;;;15.05;10.73;;;20.10;99.90;;;;;;6123286;23;20029;-75
2022/07/24 06:10:34;;;;;;;16.05;9.85;;;20.30;99.90;;;;;;6159527;23;20053;-76
2022/07/24 06:13:02;;;;;;;13.50;9.63;;;20.40;99.90;;;;;;6162128;23;20010;-75
2022/07/24 06:15:31;;;;;;;15.20;10.15;;;20.40;99.90;;;;;;6156129;23;20029;-75
2022/07/24 06:18:05;;;;;;;11.63;10.00;;;20.50;99.90;;;;;;6161229;23;20013;-75
2022/07/24 06:20:32;;;;;;;15.93;10.02;;;20.60;99.90;;;;;;6151716;23;20030;-75
2022/07/24 06:23:00;;;;;;;11.52;9.82;;;20.70;99.90;;;;;;6157264;23;20022;-76
2022/07/24 06:25:28;;;;;;;13.38;8.50;;;20.70;99.90;;;;;;6162001;23;20034;-75
2022/07/24 06:27:57;;;;;;;12.27;8.90;;;20.80;99.90;;;;;;6153949;23;20062;-75
2022/07/24 06:30:27;;;;;;;12.23;9.57;;;20.90;99.90;;;;;;6160590;23;20428;-75
2022/07/24 06:32:57;;;;;;;13.90;8.63;;;21.10;99.90;;;;;;6161772;23;20013;-76
2022/07/24 06:35:26;;;;;;;11.07;9.83;;;21.20;99.90;;;;;;6130360;23;20084;-75
2022/07/24 06:37:55;;;;;;;17.73;10.38;;;21.40;99.90;;;;;;6133346;23;20017;-76
2022/07/24 06:40:23;;;;;;;10.52;9.40;;;21.60;99.90;;;;;;6151611;23;20033;-76
2022/07/24 06:42:51;;;;;;;17.42;8.73;;;21.50;99.90;;;;;;6158568;23;20021;-75
2022/07/24 06:45:19;;;;;;;17.30;10.85;;;21.50;99.90;;;;;;6161754;23;20013;-76
2022/07/24 06:47:46;;;;;;;10.38;9.35;;;21.50;99.90;;;;;;6154591;23;20037;-76
2022/07/24 06:50:14;;;;;;;11.68;10.23;;;21.50;99.90;;;;;;6160095;23;20017;-76
2022/07/24 06:52:42;;;;;;;11.60;10.27;;;21.50;99.90;;;;;;6161186;23;20020;-76
2022/07/24 06:55:10;;;;;;;12.40;9.00;;;21.50;99.90;;;;;;6157643;23;20466;-76
2022/07/24 06:57:38;;;;;;;18.45;8.75;;;21.60;99.90;;;;;;6161488;23;20087;-75
2022/07/24 07:00:08;;;;;;;10.88;9.77;;;21.70;99.90;;;;;;6153058;23;20029;-76
2022/07/24 07:02:37;;;;;;;17.25;8.20;;;21.80;99.90;;;;;;6132935;23;20021;-76
2022/07/24 07:05:06;;;;;;;17.48;10.45;;;22.00;99.90;;;;;;6161481;23;20013;-75
2022/07/24 07:07:36;;;;;;;16.00;9.13;;;22.20;99.90;;;;;;6154794;23;20025;-75
2022/07/24 07:10:06;;;;;;;13.35;9.65;;;22.40;99.90;;;;;;6161366;23;20302;-75
2022/07/24 07:12:34;;;;;;;13.10;9.43;;;22.60;99.90;;;;;;6151135;23;20033;-76
2022/07/24 07:15:09;;;;;;;20.52;10.00;;;22.60;99.90;;;;;;6157144;23;20025;-75
2022/07/24 07:17:38;;;;;;;9.82;8.93;;;22.60;99.90;;;;;;6161434;23;20018;-75
2022/07/24 07:20:07;;;;;;;13.80;7.70;;;22.60;99.90;;;;;;6152770;23;20772;-76
2022/07/24 07:22:35;;;;;;;11.48;7.75;;;22.80;99.90;;;;;;6160686;23;20021;-75
2022/07/24 07:25:03;;;;;;;10.40;7.38;;;23.00;99.90;;;;;;6127534;23;20025;-76
2022/07/24 07:27:32;;;;;;;18.30;8.70;;;23.30;99.90;;;;;;6156579;23;20022;-75
2022/07/24 07:29:59;;;;;;;8.48;6.97;;;23.50;99.90;;;;;;6162779;23;20025;-75
2022/07/24 07:32:27;;;;;;;8.77;6.88;;;23.50;99.90;;;;;;6153130;23;20049;-75
2022/07/24 07:34:55;;;;;;;9.15;8.23;;;23.40;99.90;;;;;;6160157;23;20036;-76
2022/07/24 07:37:25;;;;;;;10.53;7.73;;;23.40;99.90;;;;;;6162572;23;20028;-75
2022/07/24 07:39:52;;;;;;;8.50;7.70;;;23.30;99.90;;;;;;6149913;23;20021;-76
2022/07/24 07:42:21;;;;;;;8.65;7.60;;;23.10;99.90;;;;;;6162087;23;20017;-76
2022/07/24 07:44:48;;;;;;;10.55;7.53;;;23.10;99.90;;;;;;6162733;23;20025;-76
2022/07/24 07:47:16;;;;;;;10.20;8.00;;;23.00;99.90;;;;;;6157036;23;20024;-76
2022/07/24 07:49:44;;;;;;;11.70;9.25;;;23.00;99.90;;;;;;6125294;23;20449;-76
2022/07/24 07:52:11;;;;;;;9.48;8.23;;;22.90;99.90;;;;;;6153805;23;20504;-75
2022/07/24 07:54:39;;;;;;;9.65;7.57;;;23.00;99.90;;;;;;6161165;23;20353;-75
2022/07/24 07:57:07;;;;;;;8.90;7.15;;;23.20;99.90;;;;;;6133453;23;20461;-74
2022/07/24 07:59:35;;;;;;;10.60;7.30;;;23.40;99.90;;;;;;6130843;23;20028;-74
2022/07/24 08:02:02;;;;;;;8.23;7.20;;;23.70;99.90;;;;;;6162738;23;20016;-74
2022/07/24 08:04:30;;;;;;;9.45;7.40;;;24.00;99.90;;;;;;6153258;23;20032;-74
2022/07/24 08:06:58;;;;;;;9.35;7.18;;;24.20;99.90;;;;;;6158416;23;20366;-74
2022/07/24 08:09:26;;;;;;;15.60;7.15;;;24.30;99.90;;;;;;6162943;23;20014;-75
2022/07/24 08:11:56;;;;;;;7.93;7.22;;;24.40;99.90;;;;;;6155189;23;20033;-74
2022/07/24 08:14:24;;;;;;;9.27;6.82;;;24.50;99.90;;;;;;6161724;23;20048;-74
2022/07/24 08:16:52;;;;;;;8.35;7.53;;;24.60;99.90;;;;;;6162714;23;20646;-74
2022/07/24 08:19:20;;;;;;;9.35;7.30;;;24.70;99.90;;;;;;6131171;23;20032;-73
2022/07/24 08:21:48;;;;;;;8.70;6.82;;;24.70;99.90;;;;;;6162804;23;20018;-74
2022/07/24 08:24:20;;;;;;;10.82;6.72;;;24.80;99.90;;;;;;6154297;23;20026;-74
2022/07/24 08:26:48;;;;;;;15.32;8.40;;;24.80;99.90;;;;;;6159936;23;20488;-75
2022/07/24 08:29:17;;;;;;;10.20;8.30;;;24.90;99.90;;;;;;6162839;23;20453;-74
2022/07/24 08:31:44;;;;;;;22.70;7.13;;;25.10;99.90;;;;;;6129673;23;20033;-75
2022/07/24 08:34:12;;;;;;;7.30;6.70;;;25.10;99.90;;;;;;6162153;23;20014;-75
2022/07/24 08:36:40;;;;;;;7.38;6.53;;;25.20;99.90;;;;;;6162070;23;20017;-75
2022/07/24 08:39:08;;;;;;;9.02;6.15;;;25.20;99.90;;;;;;6155142;23;20025;-75
2022/07/24 08:41:37;;;;;;;9.75;7.65;;;25.20;99.90;;;;;;6162879;23;20314;-75
2022/07/24 08:44:05;;;;;;;9.68;7.82;;;25.20;99.90;;;;;;6154365;23;20044;-75
2022/07/24 08:46:37;;;;;;;8.35;7.60;;;25.10;99.90;;;;;;6126004;23;20025;-76
2022/07/24 08:49:12;;;;;;;8.27;7.57;;;25.20;99.90;;;;;;6162525;23;20025;-76
2022/07/24 08:51:42;;;;;;;8.20;6.90;;;25.20;99.90;;;;;;6155010;23;20032;-76
2022/07/24 08:54:10;;;;;;;8.05;7.25;;;25.40;99.90;;;;;;6164662;23;20032;-82
2022/07/24 08:56:40;;;;;;;7.20;6.53;;;25.50;99.90;;;;;;6154565;23;20026;-83
2022/07/24 08:59:18;;;;;;;6.10;5.57;;;25.50;99.90;;;;;;6128161;23;20445;-82
2022/07/24 09:01:52;;;;;;;7.47;6.78;;;25.50;99.90;;;;;;6165345;23;20010;-82
2022/07/24 09:04:36;;;;;;;7.65;7.05;;;25.50;99.90;;;;;;6130481;23;20022;-83
2022/07/24 09:07:13;;;;;;;19.67;6.38;;;25.50;99.90;;;;;;6160611;23;20018;-81
2022/07/24 09:09:43;;;;;;;8.10;6.57;;;25.40;99.90;;;;;;6165370;23;20018;-84
2022/07/24 09:12:14;;;;;;;9.75;8.95;;;25.50;99.90;;;;;;6153902;23;20028;-77
2022/07/24 09:14:45;;;;;;;9.40;6.80;;;25.50;99.90;;;;;;6125518;23;20021;-77
2022/07/24 09:17:21;;;;;;;7.97;6.15;;;25.30;99.90;;;;;;6162175;23;20032;-78
2022/07/24 09:19:55;;;;;;;8.07;7.07;;;25.40;99.90;;;;;;6154721;23;20033;-78
2022/07/24 09:22:40;;;;;;;7.18;6.30;;;25.60;99.90;;;;;;6160676;23;20020;-79
2022/07/24 09:25:26;;;;;;;10.85;6.63;;;25.60;99.90;;;;;;6162289;23;20024;-77
2022/07/24 09:27:58;;;;;;;12.20;7.30;;;25.80;99.90;;;;;;6154709;23;20029;-78
2022/07/24 09:30:29;;;;;;;9.05;6.00;;;25.80;99.90;;;;;;6161079;23;20018;-79
2022/07/24 09:33:03;;;;;;;6.40;5.80;;;25.80;99.90;;;;;;6162793;23;20018;-80
2022/07/24 09:35:32;;;;;;;7.05;5.80;;;25.60;99.90;;;;;;6156313;23;20025;-79
2022/07/24 09:38:01;;;;;;;5.93;5.38;;;25.60;99.90;;;;;;6159218;23;20025;-79
2022/07/24 09:40:34;;;;;;;7.75;6.15;;;25.60;99.90;;;;;;6152953;23;20028;-80
2022/07/24 09:43:18;;;;;;;6.80;6.18;;;25.80;99.90;;;;;;6158989;23;20457;-79
2022/07/24 09:46:00;;;;;;;8.05;7.30;;;26.00;99.90;;;;;;6163212;23;20010;-79
2022/07/24 09:48:33;;;;;;;7.90;7.10;;;26.10;99.90;;;;;;6152166;23;20022;-76
2022/07/24 09:51:09;;;;;;;7.28;6.68;;;26.10;99.90;;;;;;6158681;23;20026;-76
2022/07/24 09:53:38;;;;;;;8.05;6.75;;;26.10;99.90;;;;;;6160663;23;20102;-77
2022/07/24 09:56:11;;;;;;;6.20;5.60;;;26.10;99.90;;;;;;6128186;23;20025;-76
2022/07/24 09:58:46;;;;;;;6.57;5.97;;;26.40;99.90;;;;;;6158471;23;20765;-76
2022/07/24 10:01:16;;;;;;;6.90;6.35;;;26.60;99.90;;;;;;6161253;23;20014;-77
2022/07/24 10:03:46;;;;;;;7.15;6.55;;;26.70;99.90;;;;;;6153403;23;20028;-76
2022/07/24 10:06:17;;;;;;;9.65;6.55;;;26.60;99.90;;;;;;6124797;23;20020;-75
2022/07/24 10:08:47;;;;;;;6.80;6.20;;;26.30;99.90;;;;;;6124913;23;20014;-76
2022/07/24 10:11:15;;;;;;;11.63;6.60;;;26.10;99.90;;;;;;6157550;23;20025;-77
2022/07/24 10:13:44;;;;;;;7.22;6.50;;;25.80;99.90;;;;;;6162694;23;20025;-77
2022/07/24 10:16:12;;;;;;;7.03;6.32;;;25.70;99.90;;;;;;6127015;23;20025;-77
2022/07/24 10:18:50;;;;;;;13.05;6.30;;;26.00;99.90;;;;;;6159855;23;20025;-78
2022/07/24 10:21:23;;;;;;;7.78;7.05;;;26.20;99.90;;;;;;6161835;23;20614;-75
2022/07/24 10:24:03;;;;;;;10.10;6.93;;;26.20;99.90;;;;;;6154511;23;20025;-77
2022/07/24 10:26:49;;;;;;;7.90;6.55;;;26.40;99.90;;;;;;6159499;23;20010;-76
2022/07/24 10:29:19;;;;;;;6.80;6.20;;;26.50;99.90;;;;;;6124929;23;20014;-76
2022/07/24 10:31:50;;;;;;;7.53;6.80;;;26.70;99.90;;;;;;6154491;23;20026;-76
2022/07/24 10:34:46;;;;;;;6.78;6.07;;;26.60;99.90;;;;;;6160824;23;20009;-76
2022/07/24 10:37:23;;;;;;;20.75;8.10;;;26.40;99.90;;;;;;6161056;23;20020;-77
2022/07/24 10:40:04;;;;;;;6.82;6.28;;;26.50;99.90;;;;;;6150800;23;20028;-76
2022/07/24 10:42:32;;;;;;;6.35;5.57;;;26.70;99.90;;;;;;6159591;23;20437;-76
2022/07/24 10:45:19;;;;;;;6.70;6.10;;;26.40;99.90;;;;;;6161763;23;20449;-76
2022/07/24 10:47:46;;;;;;;7.30;6.50;;;26.20;99.90;;;;;;6154673;23;20465;-76
2022/07/24 10:50:15;;;;;;;7.68;6.10;;;26.10;99.90;;;;;;6160258;23;20448;-76
2022/07/24 10:52:42;;;;;;;7.88;6.57;;;26.00;99.90;;;;;;6134998;23;20441;-76
2022/07/24 10:55:23;;;;;;;10.40;7.07;;;26.00;99.90;;;;;;6157202;23;20026;-76
2022/07/24 10:58:11;;;;;;;6.90;6.28;;;25.90;99.90;;;;;;6163490;23;20018;-77
2022/07/24 11:00:43;;;;;;;13.18;7.25;;;25.60;99.90;;;;;;6152518;23;20037;-77
2022/07/24 11:03:32;;;;;;;5.72;5.32;;;25.60;99.90;;;;;;6159035;23;20029;-76
2022/07/24 11:06:11;;;;;;;6.43;5.93;;;25.40;99.90;;;;;;6163840;23;20326;-76
2022/07/24 11:08:39;;;;;;;7.38;6.63;;;25.30;99.90;;;;;;6151083;23;20021;-80
2022/07/24 11:11:17;;;;;;;7.22;5.75;;;25.20;99.90;;;;;;6133262;23;20658;-78
2022/07/24 11:13:49;;;;;;;8.00;7.32;;;25.20;99.90;;;;;;6163742;23;20017;-78
2022/07/24 11:16:23;;;;;;;6.68;6.07;;;25.20;99.90;;;;;;6154596;23;20456;-77
2022/07/24 11:18:54;;;;;;;8.30;7.05;;;25.30;99.90;;;;;;6160046;23;20025;-79
2022/07/24 11:21:42;;;;;;;7.45;6.68;;;25.30;99.90;;;;;;6163013;23;20079;-77
2022/07/24 11:26:56;;;;;;;7.25;6.05;;;25.60;99.90;;;;;;6161376;23;20027;-81
2022/07/24 11:29:30;;;;;;;9.25;6.85;;;25.80;99.90;;;;;;6128108;23;20077;-80
2022/07/24 11:32:01;;;;;;;7.40;6.55;;;25.90;99.90;;;;;;6156255;23;20025;-80
2022/07/24 11:34:29;;;;;;;7.13;6.45;;;26.00;99.90;;;;;;6162078;23;20009;-79
2022/07/24 11:36:58;;;;;;;9.43;6.35;;;26.20;99.90;;;;;;6163204;23;20020;-79
2022/07/24 11:39:28;;;;;;;8.68;6.45;;;26.40;99.90;;;;;;6154918;23;20028;-78
2022/07/24 11:42:01;;;;;;;6.43;5.93;;;26.60;99.90;;;;;;6164014;23;20018;-79
2022/07/24 11:44:30;;;;;;;6.78;6.18;;;26.70;99.90;;;;;;6129247;23;20025;-80
2022/07/24 11:47:00;;;;;;;7.25;5.40;;;26.90;99.90;;;;;;6159933;23;20478;-76
2022/07/24 11:49:28;;;;;;;;;;;26.80;99.90;;;;;;6163347;23;20014;-76
2022/07/24 11:51:56;;;;;;;7.82;7.03;;;26.80;99.90;;;;;;6155514;23;19924;-76
2022/07/24 11:54:27;;;;;;;5.70;5.18;;;26.90;99.90;;;;;;6161788;23;20021;-77
2022/07/24 11:56:56;;;;;;;8.90;5.72;;;27.10;99.90;;;;;;6136351;23;20033;-76
2022/07/24 12:05:23;;;;;;;;;;;27.20;99.90;;;;;;6042236;23;20023;-89
2022/07/24 12:19:19;;;;;;;9.40;6.45;;;27.70;99.90;;;;;;5885861;24;20029;-73
2022/07/24 12:21:48;;;;;;;6.70;6.10;;;27.90;99.20;;;;;;5985753;23;20015;-76
2022/07/24 12:24:16;;;;;;;8.02;6.30;;;27.80;99.90;;;;;;6075602;23;20053;-76
2022/07/24 12:26:58;;;;;;;8.73;6.72;;;27.70;99.90;;;;;;6134029;23;20033;-75
2022/07/24 12:29:27;;;;;;;7.82;7.13;;;27.70;99.90;;;;;;6162626;23;20033;-74
2022/07/24 12:32:18;;;;;;;7.78;6.35;;;27.60;99.90;;;;;;6154873;23;20025;-75
2022/07/24 12:34:47;;;;;;;10.55;6.68;;;27.70;99.50;;;;;;6160129;23;20028;-75
2022/07/24 12:37:37;;;;;;;8.68;6.95;;;27.70;98.80;;;;;;6152751;23;20479;-76
2022/07/24 12:40:05;;;;;;;;;;;27.90;99.90;;;;;;6154770;23;20033;-76
2022/07/24 12:42:33;;;;;;;7.32;6.63;;;27.90;99.90;;;;;;6161252;23;19925;-76
2022/07/24 12:45:08;;;;;;;8.55;6.32;;;27.90;99.20;;;;;;6162877;23;20021;-76
2022/07/24 12:48:13;;;;;;;8.68;6.50;;;27.90;99.30;;;;;;6156682;23;20021;-76
2022/07/24 12:51:05;;;;;;;8.82;6.75;;;27.90;98.20;;;;;;6160365;23;20018;-76
2022/07/24 12:53:35;;;;;;;7.75;7.05;;;27.50;99.10;;;;;;6162549;23;20016;-76
2022/07/24 12:56:04;;;;;;;7.18;6.47;;;27.40;98.90;;;;;;6154583;23;20021;-76
2022/07/24 12:58:51;;;;;;;7.15;6.43;;;27.30;99.10;;;;;;6160697;23;20010;-76
2022/07/24 13:01:21;;;;;;;8.05;6.57;;;27.10;99.80;;;;;;6162443;23;20731;-75
2022/07/24 13:03:58;;;;;;;7.50;6.80;;;27.00;99.90;;;;;;6155423;23;20492;-75
2022/07/24 13:06:42;;;;;;;7.82;7.13;;;26.80;99.90;;;;;;6160026;23;20017;-75
2022/07/24 13:09:12;;;;;;;7.40;6.63;;;26.70;99.90;;;;;;6136755;23;20018;-76
2022/07/24 13:11:41;;;;;;;7.90;7.20;;;27.00;99.90;;;;;;6155923;23;20026;-75
2022/07/24 13:14:11;;;;;;;6.13;5.60;;;27.20;99.90;;;;;;6162395;23;20010;-75
2022/07/24 13:16:41;;;;;;;7.45;6.78;;;27.40;99.20;;;;;;6151745;23;20029;-75